sensor_id;sensor_type;location;lat;lon;timestamp;P1;durP1;ratioP1;P2;durP2;ratioP2
66739;SDS011;53653;52.188;8.602;2023-05-19T00:01:13;11.87;;;4.70;;
66739;SDS011;53653;52.188;8.602;2023-05-19T00:03:50;13.57;;;5.43;;
66739;SDS011;53653;52.188;8.602;2023-05-19T00:06:25;13.23;;;4.80;;
66739;SDS011;53653;52.188;8.602;2023-05-19T00:08:54;15.20;;;5.30;;
66739;SDS011;53653;52.188;8.602;2023-05-19T00:11:22;12.02;;;5.07;;
66739;SDS011;53653;52.188;8.602;2023-05-19T00:13:48;11.57;;;5.13;;
66739;SDS011;53653;52.188;8.602;2023-05-19T00:16:15;12.57;;;5.15;;
66739;SDS011;53653;52.188;8.602;2023-05-19T00:18:42;14.25;;;5.22;;
66739;SDS011;53653;52.188;8.602;2023-05-19T00:21:07;14.23;;;5.57;;
66739;SDS011;53653;52.188;8.602;2023-05-19T00:23:33;14.68;;;5.00;;
66739;SDS011;53653;52.188;8.602;2023-05-19T00:25:59;13.40;;;5.10;;
66739;SDS011;53653;52.188;8.602;2023-05-19T00:28:25;11.43;;;5.30;;
66739;SDS011;53653;52.188;8.602;2023-05-19T00:30:51;10.80;;;5.07;;
66739;SDS011;53653;52.188;8.602;2023-05-19T00:33:16;17.15;;;5.30;;
66739;SDS011;53653;52.188;8.602;2023-05-19T00:35:43;11.55;;;5.18;;
66739;SDS011;53653;52.188;8.602;2023-05-19T00:38:08;13.77;;;4.93;;
66739;SDS011;53653;52.188;8.602;2023-05-19T00:40:34;17.27;;;5.17;;
66739;SDS011;53653;52.188;8.602;2023-05-19T00:43:03;16.05;;;5.25;;
66739;SDS011;53653;52.188;8.602;2023-05-19T00:45:30;13.95;;;5.47;;
66739;SDS011;53653;52.188;8.602;2023-05-19T00:47:56;15.75;;;5.13;;
66739;SDS011;53653;52.188;8.602;2023-05-19T00:50:22;14.23;;;5.07;;
66739;SDS011;53653;52.188;8.602;2023-05-19T00:52:53;15.27;;;5.15;;
66739;SDS011;53653;52.188;8.602;2023-05-19T00:55:25;12.40;;;5.63;;
66739;SDS011;53653;52.188;8.602;2023-05-19T00:57:53;13.43;;;6.07;;
66739;SDS011;53653;52.188;8.602;2023-05-19T01:00:20;15.73;;;5.43;;
66739;SDS011;53653;52.188;8.602;2023-05-19T01:02:46;12.25;;;5.68;;
66739;SDS011;53653;52.188;8.602;2023-05-19T01:05:12;13.27;;;5.47;;
66739;SDS011;53653;52.188;8.602;2023-05-19T01:07:38;13.70;;;4.93;;
66739;SDS011;53653;52.188;8.602;2023-05-19T01:10:06;12.57;;;4.50;;
66739;SDS011;53653;52.188;8.602;2023-05-19T01:12:32;10.50;;;4.65;;
66739;SDS011;53653;52.188;8.602;2023-05-19T01:15:00;11.02;;;4.07;;
66739;SDS011;53653;52.188;8.602;2023-05-19T01:17:39;12.40;;;4.30;;
66739;SDS011;53653;52.188;8.602;2023-05-19T01:28:41;11.68;;;4.85;;
66739;SDS011;53653;52.188;8.602;2023-05-19T01:31:10;13.55;;;4.75;;
66739;SDS011;53653;52.188;8.602;2023-05-19T01:33:37;13.75;;;4.25;;
66739;SDS011;53653;52.188;8.602;2023-05-19T01:36:05;11.97;;;4.93;;
66739;SDS011;53653;52.188;8.602;2023-05-19T01:38:33;11.80;;;4.70;;
66739;SDS011;53653;52.188;8.602;2023-05-19T01:40:59;12.38;;;5.07;;
66739;SDS011;53653;52.188;8.602;2023-05-19T01:43:28;13.85;;;5.28;;
66739;SDS011;53653;52.188;8.602;2023-05-19T01:45:54;12.52;;;5.00;;
66739;SDS011;53653;52.188;8.602;2023-05-19T01:48:23;12.53;;;5.20;;
66739;SDS011;53653;52.188;8.602;2023-05-19T01:50:50;11.52;;;4.85;;
66739;SDS011;53653;52.188;8.602;2023-05-19T01:53:15;13.25;;;5.10;;
66739;SDS011;53653;52.188;8.602;2023-05-19T01:55:45;13.57;;;5.40;;
66739;SDS011;53653;52.188;8.602;2023-05-19T02:00:52;12.27;;;5.25;;
66739;SDS011;53653;52.188;8.602;2023-05-19T02:09:13;11.70;;;4.70;;
66739;SDS011;53653;52.188;8.602;2023-05-19T02:11:54;12.80;;;5.55;;
66739;SDS011;53653;52.188;8.602;2023-05-19T02:14:28;15.07;;;5.28;;
66739;SDS011;53653;52.188;8.602;2023-05-19T02:16:58;16.98;;;5.13;;
66739;SDS011;53653;52.188;8.602;2023-05-19T02:19:29;14.27;;;5.65;;
66739;SDS011;53653;52.188;8.602;2023-05-19T02:21:56;12.67;;;4.97;;
66739;SDS011;53653;52.188;8.602;2023-05-19T02:24:22;13.15;;;5.03;;
66739;SDS011;53653;52.188;8.602;2023-05-19T02:26:51;12.40;;;5.03;;
66739;SDS011;53653;52.188;8.602;2023-05-19T02:29:18;16.20;;;5.00;;
66739;SDS011;53653;52.188;8.602;2023-05-19T02:31:45;11.45;;;4.82;;
66739;SDS011;53653;52.188;8.602;2023-05-19T02:34:10;11.85;;;4.63;;
66739;SDS011;53653;52.188;8.602;2023-05-19T02:36:39;13.77;;;5.80;;
66739;SDS011;53653;52.188;8.602;2023-05-19T02:39:07;17.15;;;6.32;;
66739;SDS011;53653;52.188;8.602;2023-05-19T02:41:35;14.13;;;6.32;;
66739;SDS011;53653;52.188;8.602;2023-05-19T02:44:01;16.83;;;6.97;;
66739;SDS011;53653;52.188;8.602;2023-05-19T02:46:26;14.17;;;7.10;;
66739;SDS011;53653;52.188;8.602;2023-05-19T02:48:52;15.82;;;7.32;;
66739;SDS011;53653;52.188;8.602;2023-05-19T02:51:18;15.90;;;6.93;;
66739;SDS011;53653;52.188;8.602;2023-05-19T02:53:44;18.33;;;7.67;;
66739;SDS011;53653;52.188;8.602;2023-05-19T02:56:10;15.07;;;6.40;;
66739;SDS011;53653;52.188;8.602;2023-05-19T02:58:35;16.27;;;7.53;;
66739;SDS011;53653;52.188;8.602;2023-05-19T03:01:01;17.35;;;7.00;;
66739;SDS011;53653;52.188;8.602;2023-05-19T03:03:27;17.27;;;6.97;;
66739;SDS011;53653;52.188;8.602;2023-05-19T03:05:53;14.55;;;6.75;;
66739;SDS011;53653;52.188;8.602;2023-05-19T03:08:18;17.33;;;6.83;;
66739;SDS011;53653;52.188;8.602;2023-05-19T03:10:47;16.27;;;6.60;;
66739;SDS011;53653;52.188;8.602;2023-05-19T03:13:13;15.27;;;6.75;;
66739;SDS011;53653;52.188;8.602;2023-05-19T03:15:41;14.80;;;6.50;;
66739;SDS011;53653;52.188;8.602;2023-05-19T03:18:07;15.95;;;6.65;;
66739;SDS011;53653;52.188;8.602;2023-05-19T03:20:33;15.43;;;6.60;;
66739;SDS011;53653;52.188;8.602;2023-05-19T03:22:58;16.90;;;6.47;;
66739;SDS011;53653;52.188;8.602;2023-05-19T03:25:24;18.30;;;6.80;;
66739;SDS011;53653;52.188;8.602;2023-05-19T03:27:50;14.75;;;6.85;;
66739;SDS011;53653;52.188;8.602;2023-05-19T03:30:15;13.70;;;6.30;;
66739;SDS011;53653;52.188;8.602;2023-05-19T03:33:01;15.88;;;6.85;;
66739;SDS011;53653;52.188;8.602;2023-05-19T03:35:27;14.90;;;6.25;;
66739;SDS011;53653;52.188;8.602;2023-05-19T03:37:53;16.03;;;6.40;;
66739;SDS011;53653;52.188;8.602;2023-05-19T03:40:19;13.32;;;6.80;;
66739;SDS011;53653;52.188;8.602;2023-05-19T03:42:46;15.30;;;6.00;;
66739;SDS011;53653;52.188;8.602;2023-05-19T03:45:12;14.17;;;6.53;;
66739;SDS011;53653;52.188;8.602;2023-05-19T03:47:38;12.15;;;5.88;;
66739;SDS011;53653;52.188;8.602;2023-05-19T03:50:29;15.55;;;6.88;;
66739;SDS011;53653;52.188;8.602;2023-05-19T03:53:05;15.25;;;6.47;;
66739;SDS011;53653;52.188;8.602;2023-05-19T03:55:38;15.75;;;6.00;;
66739;SDS011;53653;52.188;8.602;2023-05-19T03:58:04;15.43;;;6.40;;
66739;SDS011;53653;52.188;8.602;2023-05-19T04:00:30;13.23;;;6.10;;
66739;SDS011;53653;52.188;8.602;2023-05-19T04:02:56;16.33;;;6.33;;
66739;SDS011;53653;52.188;8.602;2023-05-19T04:05:21;13.90;;;6.45;;
66739;SDS011;53653;52.188;8.602;2023-05-19T04:07:47;16.73;;;6.53;;
66739;SDS011;53653;52.188;8.602;2023-05-19T04:10:13;14.23;;;5.95;;
66739;SDS011;53653;52.188;8.602;2023-05-19T04:12:39;12.37;;;6.13;;
66739;SDS011;53653;52.188;8.602;2023-05-19T04:15:05;14.73;;;6.75;;
66739;SDS011;53653;52.188;8.602;2023-05-19T04:17:31;17.40;;;6.72;;
66739;SDS011;53653;52.188;8.602;2023-05-19T04:19:58;14.85;;;7.10;;
66739;SDS011;53653;52.188;8.602;2023-05-19T04:22:24;13.40;;;6.30;;
66739;SDS011;53653;52.188;8.602;2023-05-19T04:24:50;15.43;;;6.32;;
66739;SDS011;53653;52.188;8.602;2023-05-19T04:27:17;16.10;;;6.55;;
66739;SDS011;53653;52.188;8.602;2023-05-19T04:29:43;18.67;;;6.70;;
66739;SDS011;53653;52.188;8.602;2023-05-19T04:32:10;14.27;;;7.03;;
66739;SDS011;53653;52.188;8.602;2023-05-19T04:34:37;12.40;;;5.80;;
66739;SDS011;53653;52.188;8.602;2023-05-19T04:37:06;17.38;;;5.88;;
66739;SDS011;53653;52.188;8.602;2023-05-19T04:39:32;16.27;;;6.30;;
66739;SDS011;53653;52.188;8.602;2023-05-19T04:41:58;13.77;;;6.20;;
66739;SDS011;53653;52.188;8.602;2023-05-19T04:44:24;15.93;;;6.32;;
66739;SDS011;53653;52.188;8.602;2023-05-19T04:46:50;14.85;;;6.20;;
66739;SDS011;53653;52.188;8.602;2023-05-19T04:49:20;14.88;;;6.68;;
66739;SDS011;53653;52.188;8.602;2023-05-19T04:51:46;17.57;;;7.30;;
66739;SDS011;53653;52.188;8.602;2023-05-19T04:54:15;15.93;;;6.47;;
66739;SDS011;53653;52.188;8.602;2023-05-19T04:56:42;14.35;;;6.55;;
66739;SDS011;53653;52.188;8.602;2023-05-19T04:59:08;12.60;;;5.82;;
66739;SDS011;53653;52.188;8.602;2023-05-19T05:01:35;14.95;;;6.40;;
66739;SDS011;53653;52.188;8.602;2023-05-19T05:04:05;13.80;;;6.13;;
66739;SDS011;53653;52.188;8.602;2023-05-19T05:06:31;14.97;;;6.17;;
66739;SDS011;53653;52.188;8.602;2023-05-19T05:08:58;16.98;;;6.97;;
66739;SDS011;53653;52.188;8.602;2023-05-19T05:11:25;16.38;;;6.53;;
66739;SDS011;53653;52.188;8.602;2023-05-19T05:13:51;16.73;;;6.68;;
66739;SDS011;53653;52.188;8.602;2023-05-19T05:16:18;14.00;;;6.55;;
66739;SDS011;53653;52.188;8.602;2023-05-19T05:18:45;14.53;;;6.37;;
66739;SDS011;53653;52.188;8.602;2023-05-19T05:21:11;17.38;;;6.82;;
66739;SDS011;53653;52.188;8.602;2023-05-19T05:23:39;15.05;;;5.90;;
66739;SDS011;53653;52.188;8.602;2023-05-19T05:26:08;14.10;;;6.10;;
66739;SDS011;53653;52.188;8.602;2023-05-19T05:28:41;15.23;;;6.30;;
66739;SDS011;53653;52.188;8.602;2023-05-19T05:31:07;20.20;;;6.20;;
66739;SDS011;53653;52.188;8.602;2023-05-19T05:33:33;15.00;;;5.63;;
66739;SDS011;53653;52.188;8.602;2023-05-19T05:35:59;12.50;;;6.07;;
66739;SDS011;53653;52.188;8.602;2023-05-19T05:38:26;12.38;;;5.93;;
66739;SDS011;53653;52.188;8.602;2023-05-19T05:40:51;13.80;;;6.00;;
66739;SDS011;53653;52.188;8.602;2023-05-19T05:43:18;15.07;;;5.88;;
66739;SDS011;53653;52.188;8.602;2023-05-19T05:45:49;13.38;;;6.72;;
66739;SDS011;53653;52.188;8.602;2023-05-19T05:48:15;14.70;;;6.23;;
66739;SDS011;53653;52.188;8.602;2023-05-19T05:50:42;12.52;;;6.63;;
66739;SDS011;53653;52.188;8.602;2023-05-19T05:53:09;14.75;;;5.82;;
66739;SDS011;53653;52.188;8.602;2023-05-19T05:55:51;14.52;;;6.13;;
66739;SDS011;53653;52.188;8.602;2023-05-19T05:58:19;14.05;;;5.60;;
66739;SDS011;53653;52.188;8.602;2023-05-19T06:00:47;16.27;;;6.20;;
66739;SDS011;53653;52.188;8.602;2023-05-19T06:03:13;12.98;;;5.63;;
66739;SDS011;53653;52.188;8.602;2023-05-19T06:05:41;14.85;;;5.50;;
66739;SDS011;53653;52.188;8.602;2023-05-19T06:08:08;17.02;;;5.28;;
66739;SDS011;53653;52.188;8.602;2023-05-19T06:10:34;11.93;;;5.20;;
66739;SDS011;53653;52.188;8.602;2023-05-19T06:13:04;16.67;;;5.93;;
66739;SDS011;53653;52.188;8.602;2023-05-19T06:15:30;14.65;;;5.53;;
66739;SDS011;53653;52.188;8.602;2023-05-19T06:18:12;11.50;;;5.30;;
66739;SDS011;53653;52.188;8.602;2023-05-19T06:20:38;14.10;;;5.57;;
66739;SDS011;53653;52.188;8.602;2023-05-19T06:23:04;13.93;;;5.00;;
66739;SDS011;53653;52.188;8.602;2023-05-19T06:25:30;12.13;;;5.07;;
66739;SDS011;53653;52.188;8.602;2023-05-19T06:27:55;11.90;;;4.37;;
66739;SDS011;53653;52.188;8.602;2023-05-19T06:30:22;9.88;;;4.50;;
66739;SDS011;53653;52.188;8.602;2023-05-19T06:32:57;11.05;;;4.38;;
66739;SDS011;53653;52.188;8.602;2023-05-19T06:35:24;12.55;;;5.22;;
66739;SDS011;53653;52.188;8.602;2023-05-19T06:37:49;12.33;;;4.80;;
66739;SDS011;53653;52.188;8.602;2023-05-19T06:40:15;13.60;;;5.10;;
66739;SDS011;53653;52.188;8.602;2023-05-19T06:42:42;12.13;;;4.87;;
66739;SDS011;53653;52.188;8.602;2023-05-19T06:45:34;14.50;;;5.32;;
66739;SDS011;53653;52.188;8.602;2023-05-19T06:48:01;12.52;;;5.20;;
66739;SDS011;53653;52.188;8.602;2023-05-19T06:50:28;11.45;;;4.80;;
66739;SDS011;53653;52.188;8.602;2023-05-19T06:52:54;11.52;;;4.68;;
66739;SDS011;53653;52.188;8.602;2023-05-19T06:55:22;10.67;;;4.07;;
66739;SDS011;53653;52.188;8.602;2023-05-19T06:57:48;12.07;;;4.47;;
66739;SDS011;53653;52.188;8.602;2023-05-19T07:00:15;12.02;;;4.28;;
66739;SDS011;53653;52.188;8.602;2023-05-19T07:02:45;12.90;;;4.35;;
66739;SDS011;53653;52.188;8.602;2023-05-19T07:05:11;12.10;;;4.03;;
66739;SDS011;53653;52.188;8.602;2023-05-19T07:07:37;9.73;;;4.35;;
66739;SDS011;53653;52.188;8.602;2023-05-19T07:10:07;12.32;;;3.72;;
66739;SDS011;53653;52.188;8.602;2023-05-19T07:12:33;13.10;;;3.60;;
66739;SDS011;53653;52.188;8.602;2023-05-19T07:14:58;11.33;;;3.83;;
66739;SDS011;53653;52.188;8.602;2023-05-19T07:17:26;8.73;;;3.42;;
66739;SDS011;53653;52.188;8.602;2023-05-19T07:19:52;10.57;;;3.70;;
66739;SDS011;53653;52.188;8.602;2023-05-19T07:22:18;8.83;;;3.07;;
66739;SDS011;53653;52.188;8.602;2023-05-19T07:24:43;10.55;;;3.72;;
66739;SDS011;53653;52.188;8.602;2023-05-19T07:27:09;10.00;;;3.60;;
66739;SDS011;53653;52.188;8.602;2023-05-19T07:29:35;12.55;;;3.72;;
66739;SDS011;53653;52.188;8.602;2023-05-19T07:32:01;9.23;;;3.95;;
66739;SDS011;53653;52.188;8.602;2023-05-19T07:34:27;11.83;;;3.80;;
66739;SDS011;53653;52.188;8.602;2023-05-19T07:36:52;13.45;;;4.00;;
66739;SDS011;53653;52.188;8.602;2023-05-19T07:39:18;8.70;;;3.60;;
66739;SDS011;53653;52.188;8.602;2023-05-19T07:41:44;11.20;;;3.78;;
66739;SDS011;53653;52.188;8.602;2023-05-19T07:44:17;12.30;;;4.00;;
66739;SDS011;53653;52.188;8.602;2023-05-19T07:46:42;9.77;;;3.93;;
66739;SDS011;53653;52.188;8.602;2023-05-19T07:49:08;15.38;;;4.40;;
66739;SDS011;53653;52.188;8.602;2023-05-19T07:51:34;11.27;;;3.73;;
66739;SDS011;53653;52.188;8.602;2023-05-19T07:53:59;10.93;;;4.30;;
66739;SDS011;53653;52.188;8.602;2023-05-19T07:56:25;9.43;;;4.10;;
66739;SDS011;53653;52.188;8.602;2023-05-19T07:58:51;9.00;;;3.40;;
66739;SDS011;53653;52.188;8.602;2023-05-19T08:01:17;9.90;;;3.87;;
66739;SDS011;53653;52.188;8.602;2023-05-19T08:03:42;11.23;;;3.10;;
66739;SDS011;53653;52.188;8.602;2023-05-19T08:06:08;12.02;;;3.65;;
66739;SDS011;53653;52.188;8.602;2023-05-19T08:08:34;12.33;;;3.40;;
66739;SDS011;53653;52.188;8.602;2023-05-19T08:11:03;8.88;;;3.45;;
66739;SDS011;53653;52.188;8.602;2023-05-19T08:13:29;10.33;;;3.60;;
66739;SDS011;53653;52.188;8.602;2023-05-19T08:15:55;10.20;;;4.65;;
66739;SDS011;53653;52.188;8.602;2023-05-19T08:18:24;11.20;;;3.75;;
66739;SDS011;53653;52.188;8.602;2023-05-19T08:20:50;11.90;;;3.67;;
66739;SDS011;53653;52.188;8.602;2023-05-19T08:23:16;13.57;;;4.10;;
66739;SDS011;53653;52.188;8.602;2023-05-19T08:25:42;11.57;;;4.07;;
66739;SDS011;53653;52.188;8.602;2023-05-19T08:28:08;10.52;;;4.35;;
66739;SDS011;53653;52.188;8.602;2023-05-19T08:30:34;10.07;;;3.00;;
66739;SDS011;53653;52.188;8.602;2023-05-19T08:33:00;10.50;;;3.40;;
66739;SDS011;53653;52.188;8.602;2023-05-19T08:35:26;9.65;;;3.47;;
66739;SDS011;53653;52.188;8.602;2023-05-19T08:37:52;10.20;;;3.60;;
66739;SDS011;53653;52.188;8.602;2023-05-19T08:40:18;8.47;;;3.40;;
66739;SDS011;53653;52.188;8.602;2023-05-19T08:42:45;10.98;;;3.60;;
66739;SDS011;53653;52.188;8.602;2023-05-19T08:45:11;8.57;;;3.20;;
66739;SDS011;53653;52.188;8.602;2023-05-19T08:47:38;9.88;;;3.78;;
66739;SDS011;53653;52.188;8.602;2023-05-19T08:50:06;15.50;;;4.53;;
66739;SDS011;53653;52.188;8.602;2023-05-19T08:58:26;12.23;;;4.20;;
66739;SDS011;53653;52.188;8.602;2023-05-19T09:00:52;11.15;;;4.18;;
66739;SDS011;53653;52.188;8.602;2023-05-19T09:03:20;14.38;;;3.80;;
66739;SDS011;53653;52.188;8.602;2023-05-19T09:05:47;8.87;;;3.23;;
66739;SDS011;53653;52.188;8.602;2023-05-19T09:08:13;9.00;;;2.97;;
66739;SDS011;53653;52.188;8.602;2023-05-19T09:10:39;9.27;;;3.13;;
66739;SDS011;53653;52.188;8.602;2023-05-19T09:13:05;9.23;;;3.45;;
66739;SDS011;53653;52.188;8.602;2023-05-19T09:15:31;8.55;;;3.10;;
66739;SDS011;53653;52.188;8.602;2023-05-19T09:18:05;8.30;;;3.70;;
66739;SDS011;53653;52.188;8.602;2023-05-19T09:20:35;11.00;;;2.97;;
66739;SDS011;53653;52.188;8.602;2023-05-19T09:23:03;13.30;;;3.43;;
66739;SDS011;53653;52.188;8.602;2023-05-19T09:25:29;13.43;;;3.85;;
66739;SDS011;53653;52.188;8.602;2023-05-19T09:27:56;12.35;;;4.10;;
66739;SDS011;53653;52.188;8.602;2023-05-19T09:30:22;10.73;;;3.75;;
66739;SDS011;53653;52.188;8.602;2023-05-19T09:32:49;11.13;;;3.23;;
66739;SDS011;53653;52.188;8.602;2023-05-19T09:35:15;11.07;;;3.70;;
66739;SDS011;53653;52.188;8.602;2023-05-19T09:37:47;9.98;;;2.92;;
66739;SDS011;53653;52.188;8.602;2023-05-19T09:40:13;8.57;;;3.03;;
66739;SDS011;53653;52.188;8.602;2023-05-19T09:42:40;8.82;;;3.25;;
66739;SDS011;53653;52.188;8.602;2023-05-19T09:45:08;9.87;;;3.17;;
66739;SDS011;53653;52.188;8.602;2023-05-19T09:47:34;9.85;;;3.15;;
66739;SDS011;53653;52.188;8.602;2023-05-19T09:50:05;12.77;;;3.28;;
66739;SDS011;53653;52.188;8.602;2023-05-19T09:52:36;11.88;;;4.15;;
66739;SDS011;53653;52.188;8.602;2023-05-19T09:55:03;9.40;;;3.28;;
66739;SDS011;53653;52.188;8.602;2023-05-19T09:57:34;9.60;;;2.97;;
66739;SDS011;53653;52.188;8.602;2023-05-19T10:00:07;11.07;;;3.78;;
66739;SDS011;53653;52.188;8.602;2023-05-19T10:02:42;10.52;;;3.25;;
66739;SDS011;53653;52.188;8.602;2023-05-19T10:05:10;8.05;;;3.25;;
66739;SDS011;53653;52.188;8.602;2023-05-19T10:07:38;9.50;;;3.10;;
66739;SDS011;53653;52.188;8.602;2023-05-19T10:10:06;11.63;;;3.40;;
66739;SDS011;53653;52.188;8.602;2023-05-19T10:12:34;10.10;;;3.00;;
66739;SDS011;53653;52.188;8.602;2023-05-19T10:15:01;10.30;;;3.60;;
66739;SDS011;53653;52.188;8.602;2023-05-19T10:17:27;9.93;;;3.42;;
66739;SDS011;53653;52.188;8.602;2023-05-19T10:19:53;9.38;;;2.72;;
66739;SDS011;53653;52.188;8.602;2023-05-19T10:22:19;12.23;;;3.10;;
66739;SDS011;53653;52.188;8.602;2023-05-19T10:24:45;6.60;;;2.83;;
66739;SDS011;53653;52.188;8.602;2023-05-19T10:27:12;11.55;;;2.67;;
66739;SDS011;53653;52.188;8.602;2023-05-19T10:29:40;7.78;;;3.10;;
66739;SDS011;53653;52.188;8.602;2023-05-19T10:32:09;7.10;;;2.70;;
66739;SDS011;53653;52.188;8.602;2023-05-19T10:40:37;8.63;;;3.20;;
66739;SDS011;53653;52.188;8.602;2023-05-19T10:43:20;7.07;;;3.13;;
66739;SDS011;53653;52.188;8.602;2023-05-19T10:45:51;10.67;;;3.00;;
66739;SDS011;53653;52.188;8.602;2023-05-19T10:48:19;8.57;;;3.20;;
66739;SDS011;53653;52.188;8.602;2023-05-19T10:50:46;11.35;;;3.45;;
66739;SDS011;53653;52.188;8.602;2023-05-19T10:53:15;14.40;;;3.63;;
66739;SDS011;53653;52.188;8.602;2023-05-19T11:01:01;7.22;;;2.72;;
66739;SDS011;53653;52.188;8.602;2023-05-19T11:03:27;8.10;;;2.50;;
66739;SDS011;53653;52.188;8.602;2023-05-19T11:06:15;7.95;;;2.58;;
66739;SDS011;53653;52.188;8.602;2023-05-19T11:08:42;7.87;;;3.00;;
66739;SDS011;53653;52.188;8.602;2023-05-19T11:11:14;9.70;;;3.13;;
66739;SDS011;53653;52.188;8.602;2023-05-19T11:13:47;8.45;;;2.88;;
66739;SDS011;53653;52.188;8.602;2023-05-19T11:16:25;8.17;;;2.73;;
66739;SDS011;53653;52.188;8.602;2023-05-19T11:18:53;9.38;;;2.75;;
66739;SDS011;53653;52.188;8.602;2023-05-19T11:21:20;7.22;;;2.15;;
66739;SDS011;53653;52.188;8.602;2023-05-19T11:23:45;6.40;;;2.13;;
66739;SDS011;53653;52.188;8.602;2023-05-19T11:26:11;6.20;;;2.00;;
66739;SDS011;53653;52.188;8.602;2023-05-19T11:28:37;6.97;;;2.28;;
66739;SDS011;53653;52.188;8.602;2023-05-19T11:31:04;7.03;;;2.30;;
66739;SDS011;53653;52.188;8.602;2023-05-19T11:33:32;6.67;;;2.37;;
66739;SDS011;53653;52.188;8.602;2023-05-19T11:35:57;7.03;;;2.30;;
66739;SDS011;53653;52.188;8.602;2023-05-19T11:38:23;5.80;;;1.92;;
66739;SDS011;53653;52.188;8.602;2023-05-19T11:40:53;6.07;;;1.83;;
66739;SDS011;53653;52.188;8.602;2023-05-19T11:43:24;7.27;;;2.43;;
66739;SDS011;53653;52.188;8.602;2023-05-19T11:45:50;6.45;;;2.05;;
66739;SDS011;53653;52.188;8.602;2023-05-19T11:48:19;7.80;;;2.13;;
66739;SDS011;53653;52.188;8.602;2023-05-19T11:50:45;12.50;;;2.10;;
66739;SDS011;53653;52.188;8.602;2023-05-19T11:53:11;5.13;;;1.43;;
66739;SDS011;53653;52.188;8.602;2023-05-19T11:55:41;5.65;;;1.80;;
66739;SDS011;53653;52.188;8.602;2023-05-19T11:58:10;6.05;;;2.03;;
66739;SDS011;53653;52.188;8.602;2023-05-19T12:00:36;7.83;;;2.10;;
66739;SDS011;53653;52.188;8.602;2023-05-19T12:03:03;7.82;;;2.38;;
66739;SDS011;53653;52.188;8.602;2023-05-19T12:05:29;9.13;;;2.50;;
66739;SDS011;53653;52.188;8.602;2023-05-19T12:07:55;10.25;;;2.55;;
66739;SDS011;53653;52.188;8.602;2023-05-19T12:10:22;6.28;;;1.88;;
66739;SDS011;53653;52.188;8.602;2023-05-19T12:12:52;8.73;;;2.20;;
66739;SDS011;53653;52.188;8.602;2023-05-19T12:15:22;6.93;;;2.17;;
66739;SDS011;53653;52.188;8.602;2023-05-19T12:17:49;6.63;;;2.30;;
66739;SDS011;53653;52.188;8.602;2023-05-19T12:20:25;9.30;;;2.30;;
66739;SDS011;53653;52.188;8.602;2023-05-19T12:22:55;7.22;;;2.90;;
66739;SDS011;53653;52.188;8.602;2023-05-19T12:25:21;5.35;;;2.03;;
66739;SDS011;53653;52.188;8.602;2023-05-19T12:27:47;6.90;;;2.10;;
66739;SDS011;53653;52.188;8.602;2023-05-19T12:30:13;11.93;;;2.33;;
66739;SDS011;53653;52.188;8.602;2023-05-19T12:32:40;5.53;;;1.80;;
66739;SDS011;53653;52.188;8.602;2023-05-19T12:35:07;5.18;;;1.80;;
66739;SDS011;53653;52.188;8.602;2023-05-19T12:37:33;8.38;;;1.95;;
66739;SDS011;53653;52.188;8.602;2023-05-19T12:40:00;7.43;;;2.20;;
66739;SDS011;53653;52.188;8.602;2023-05-19T12:42:29;6.30;;;2.20;;
66739;SDS011;53653;52.188;8.602;2023-05-19T12:44:56;5.43;;;1.92;;
66739;SDS011;53653;52.188;8.602;2023-05-19T12:47:32;6.68;;;2.10;;
66739;SDS011;53653;52.188;8.602;2023-05-19T12:50:00;6.70;;;2.00;;
66739;SDS011;53653;52.188;8.602;2023-05-19T12:52:51;6.88;;;2.13;;
66739;SDS011;53653;52.188;8.602;2023-05-19T12:55:18;6.93;;;2.30;;
66739;SDS011;53653;52.188;8.602;2023-05-19T12:57:47;6.25;;;2.00;;
66739;SDS011;53653;52.188;8.602;2023-05-19T13:00:23;9.20;;;2.10;;
66739;SDS011;53653;52.188;8.602;2023-05-19T13:03:07;7.68;;;2.13;;
66739;SDS011;53653;52.188;8.602;2023-05-19T13:05:40;5.75;;;1.95;;
66739;SDS011;53653;52.188;8.602;2023-05-19T13:08:11;6.27;;;1.87;;
66739;SDS011;53653;52.188;8.602;2023-05-19T13:10:38;7.85;;;2.10;;
66739;SDS011;53653;52.188;8.602;2023-05-19T13:13:06;6.22;;;1.88;;
66739;SDS011;53653;52.188;8.602;2023-05-19T13:15:33;7.35;;;1.90;;
66739;SDS011;53653;52.188;8.602;2023-05-19T13:18:03;6.93;;;2.20;;
66739;SDS011;53653;52.188;8.602;2023-05-19T13:20:30;7.13;;;1.90;;
66739;SDS011;53653;52.188;8.602;2023-05-19T13:22:59;5.90;;;2.05;;
66739;SDS011;53653;52.188;8.602;2023-05-19T13:25:26;11.77;;;2.35;;
66739;SDS011;53653;52.188;8.602;2023-05-19T13:27:52;7.13;;;2.30;;
66739;SDS011;53653;52.188;8.602;2023-05-19T13:30:23;6.57;;;2.13;;
66739;SDS011;53653;52.188;8.602;2023-05-19T13:32:49;6.67;;;2.00;;
66739;SDS011;53653;52.188;8.602;2023-05-19T13:35:16;6.75;;;2.03;;
66739;SDS011;53653;52.188;8.602;2023-05-19T13:37:42;7.25;;;2.47;;
66739;SDS011;53653;52.188;8.602;2023-05-19T13:40:08;7.50;;;2.30;;
66739;SDS011;53653;52.188;8.602;2023-05-19T13:42:34;5.65;;;2.00;;
66739;SDS011;53653;52.188;8.602;2023-05-19T13:45:00;5.40;;;1.83;;
66739;SDS011;53653;52.188;8.602;2023-05-19T13:47:26;5.97;;;2.00;;
66739;SDS011;53653;52.188;8.602;2023-05-19T13:49:52;8.43;;;2.00;;
66739;SDS011;53653;52.188;8.602;2023-05-19T13:52:19;9.18;;;2.35;;
66739;SDS011;53653;52.188;8.602;2023-05-19T13:54:45;6.65;;;1.90;;
66739;SDS011;53653;52.188;8.602;2023-05-19T13:57:12;6.30;;;2.00;;
66739;SDS011;53653;52.188;8.602;2023-05-19T13:59:38;6.95;;;2.20;;
66739;SDS011;53653;52.188;8.602;2023-05-19T14:02:04;7.57;;;2.53;;
66739;SDS011;53653;52.188;8.602;2023-05-19T14:04:31;6.13;;;1.92;;
66739;SDS011;53653;52.188;8.602;2023-05-19T14:06:56;6.93;;;2.00;;
66739;SDS011;53653;52.188;8.602;2023-05-19T14:09:22;6.75;;;1.80;;
66739;SDS011;53653;52.188;8.602;2023-05-19T14:11:48;6.25;;;2.60;;
66739;SDS011;53653;52.188;8.602;2023-05-19T14:14:14;6.37;;;2.00;;
66739;SDS011;53653;52.188;8.602;2023-05-19T14:16:40;6.97;;;3.08;;
66739;SDS011;53653;52.188;8.602;2023-05-19T14:19:06;8.20;;;2.50;;
66739;SDS011;53653;52.188;8.602;2023-05-19T14:21:32;5.77;;;1.80;;
66739;SDS011;53653;52.188;8.602;2023-05-19T14:23:58;6.55;;;2.22;;
66739;SDS011;53653;52.188;8.602;2023-05-19T14:26:25;7.72;;;1.90;;
66739;SDS011;53653;52.188;8.602;2023-05-19T14:28:51;8.60;;;2.10;;
66739;SDS011;53653;52.188;8.602;2023-05-19T14:31:17;7.30;;;2.00;;
66739;SDS011;53653;52.188;8.602;2023-05-19T14:33:43;7.35;;;2.15;;
66739;SDS011;53653;52.188;8.602;2023-05-19T14:36:08;7.77;;;2.53;;
66739;SDS011;53653;52.188;8.602;2023-05-19T14:38:34;6.18;;;1.70;;
66739;SDS011;53653;52.188;8.602;2023-05-19T14:41:00;5.60;;;1.95;;
66739;SDS011;53653;52.188;8.602;2023-05-19T14:43:26;5.47;;;1.77;;
66739;SDS011;53653;52.188;8.602;2023-05-19T14:45:52;11.43;;;2.10;;
66739;SDS011;53653;52.188;8.602;2023-05-19T14:48:17;5.30;;;2.07;;
66739;SDS011;53653;52.188;8.602;2023-05-19T14:50:43;6.82;;;1.80;;
66739;SDS011;53653;52.188;8.602;2023-05-19T14:53:12;5.43;;;1.83;;
66739;SDS011;53653;52.188;8.602;2023-05-19T14:55:41;7.38;;;2.17;;
66739;SDS011;53653;52.188;8.602;2023-05-19T14:58:07;8.23;;;2.40;;
66739;SDS011;53653;52.188;8.602;2023-05-19T15:00:34;5.90;;;2.00;;
66739;SDS011;53653;52.188;8.602;2023-05-19T15:03:00;6.20;;;1.90;;
66739;SDS011;53653;52.188;8.602;2023-05-19T15:05:26;5.33;;;1.97;;
66739;SDS011;53653;52.188;8.602;2023-05-19T15:07:52;5.32;;;1.83;;
66739;SDS011;53653;52.188;8.602;2023-05-19T15:10:17;8.00;;;2.03;;
66739;SDS011;53653;52.188;8.602;2023-05-19T15:12:46;8.67;;;1.90;;
66739;SDS011;53653;52.188;8.602;2023-05-19T15:15:12;6.78;;;2.00;;
66739;SDS011;53653;52.188;8.602;2023-05-19T15:17:40;7.63;;;2.08;;